sensor_id;sensor_type;location;lat;lon;timestamp;P1;durP1;ratioP1;P2;durP2;ratioP2
50739;SDS011;36704;52.524;17.580;2023-05-20T00:00:04;17.65;;;8.75;;
50739;SDS011;36704;52.524;17.580;2023-05-20T00:03:11;25.45;;;10.48;;
50739;SDS011;36704;52.524;17.580;2023-05-20T00:05:57;25.27;;;9.15;;
50739;SDS011;36704;52.524;17.580;2023-05-20T00:08:43;31.27;;;10.85;;
50739;SDS011;36704;52.524;17.580;2023-05-20T00:11:29;14.57;;;7.72;;
50739;SDS011;36704;52.524;17.580;2023-05-20T00:14:16;15.95;;;8.30;;
50739;SDS011;36704;52.524;17.580;2023-05-20T00:17:02;25.02;;;9.50;;
50739;SDS011;36704;52.524;17.580;2023-05-20T00:19:48;18.13;;;9.18;;
50739;SDS011;36704;52.524;17.580;2023-05-20T00:22:34;21.75;;;8.63;;
50739;SDS011;36704;52.524;17.580;2023-05-20T00:25:19;22.30;;;9.52;;
50739;SDS011;36704;52.524;17.580;2023-05-20T00:28:05;22.15;;;9.80;;
50739;SDS011;36704;52.524;17.580;2023-05-20T00:30:52;22.40;;;9.57;;
50739;SDS011;36704;52.524;17.580;2023-05-20T00:33:38;22.60;;;9.30;;
50739;SDS011;36704;52.524;17.580;2023-05-20T00:36:24;12.32;;;7.00;;
50739;SDS011;36704;52.524;17.580;2023-05-20T00:39:10;20.10;;;9.10;;
50739;SDS011;36704;52.524;17.580;2023-05-20T00:41:56;20.13;;;8.65;;
50739;SDS011;36704;52.524;17.580;2023-05-20T00:44:47;14.10;;;8.10;;
50739;SDS011;36704;52.524;17.580;2023-05-20T00:47:33;19.05;;;9.02;;
50739;SDS011;36704;52.524;17.580;2023-05-20T00:50:20;9.73;;;6.75;;
50739;SDS011;36704;52.524;17.580;2023-05-20T00:53:10;11.07;;;6.43;;
50739;SDS011;36704;52.524;17.580;2023-05-20T00:55:56;16.98;;;7.65;;
50739;SDS011;36704;52.524;17.580;2023-05-20T00:58:42;20.85;;;9.05;;
50739;SDS011;36704;52.524;17.580;2023-05-20T01:01:28;13.48;;;7.68;;
50739;SDS011;36704;52.524;17.580;2023-05-20T01:04:14;20.00;;;8.25;;
50739;SDS011;36704;52.524;17.580;2023-05-20T01:07:01;12.73;;;7.20;;
50739;SDS011;36704;52.524;17.580;2023-05-20T01:09:49;26.33;;;9.98;;
50739;SDS011;36704;52.524;17.580;2023-05-20T01:12:47;16.08;;;8.20;;
50739;SDS011;36704;52.524;17.580;2023-05-20T01:15:34;17.70;;;8.55;;
50739;SDS011;36704;52.524;17.580;2023-05-20T01:18:21;17.17;;;8.23;;
50739;SDS011;36704;52.524;17.580;2023-05-20T01:21:10;18.92;;;9.52;;
50739;SDS011;36704;52.524;17.580;2023-05-20T01:23:56;18.10;;;8.05;;
50739;SDS011;36704;52.524;17.580;2023-05-20T01:26:42;15.63;;;7.95;;
50739;SDS011;36704;52.524;17.580;2023-05-20T01:29:32;13.17;;;7.33;;
50739;SDS011;36704;52.524;17.580;2023-05-20T01:32:22;17.15;;;8.00;;
50739;SDS011;36704;52.524;17.580;2023-05-20T01:35:10;17.33;;;7.95;;
50739;SDS011;36704;52.524;17.580;2023-05-20T01:37:56;13.93;;;6.78;;
50739;SDS011;36704;52.524;17.580;2023-05-20T01:40:43;13.05;;;6.78;;
50739;SDS011;36704;52.524;17.580;2023-05-20T01:43:30;16.27;;;8.20;;
50739;SDS011;36704;52.524;17.580;2023-05-20T01:46:16;16.05;;;7.70;;
50739;SDS011;36704;52.524;17.580;2023-05-20T01:49:02;14.40;;;7.40;;
50739;SDS011;36704;52.524;17.580;2023-05-20T01:51:47;13.68;;;7.40;;
50739;SDS011;36704;52.524;17.580;2023-05-20T01:54:34;17.83;;;8.70;;
50739;SDS011;36704;52.524;17.580;2023-05-20T01:57:20;12.68;;;7.30;;
50739;SDS011;36704;52.524;17.580;2023-05-20T02:00:08;10.48;;;6.30;;
50739;SDS011;36704;52.524;17.580;2023-05-20T02:03:01;23.00;;;9.15;;
50739;SDS011;36704;52.524;17.580;2023-05-20T02:05:48;12.05;;;6.28;;
50739;SDS011;36704;52.524;17.580;2023-05-20T02:08:34;11.80;;;6.88;;
50739;SDS011;36704;52.524;17.580;2023-05-20T02:11:20;12.02;;;6.90;;
50739;SDS011;36704;52.524;17.580;2023-05-20T02:14:06;13.10;;;6.57;;
50739;SDS011;36704;52.524;17.580;2023-05-20T02:16:52;11.35;;;6.95;;
50739;SDS011;36704;52.524;17.580;2023-05-20T02:19:38;16.83;;;8.30;;
50739;SDS011;36704;52.524;17.580;2023-05-20T02:22:24;11.68;;;6.55;;
50739;SDS011;36704;52.524;17.580;2023-05-20T02:25:10;10.75;;;6.10;;
50739;SDS011;36704;52.524;17.580;2023-05-20T02:27:56;12.10;;;7.03;;
50739;SDS011;36704;52.524;17.580;2023-05-20T02:30:41;15.05;;;7.65;;
50739;SDS011;36704;52.524;17.580;2023-05-20T02:33:27;11.38;;;7.07;;
50739;SDS011;36704;52.524;17.580;2023-05-20T02:36:13;14.70;;;8.10;;
50739;SDS011;36704;52.524;17.580;2023-05-20T02:38:59;12.15;;;7.30;;
50739;SDS011;36704;52.524;17.580;2023-05-20T02:41:45;12.55;;;7.68;;
50739;SDS011;36704;52.524;17.580;2023-05-20T02:44:32;10.43;;;6.97;;
50739;SDS011;36704;52.524;17.580;2023-05-20T02:47:17;17.92;;;8.02;;
50739;SDS011;36704;52.524;17.580;2023-05-20T02:50:05;23.83;;;10.32;;
50739;SDS011;36704;52.524;17.580;2023-05-20T02:52:52;15.90;;;7.97;;
50739;SDS011;36704;52.524;17.580;2023-05-20T02:55:38;13.82;;;8.30;;
50739;SDS011;36704;52.524;17.580;2023-05-20T02:58:24;17.23;;;8.90;;
50739;SDS011;36704;52.524;17.580;2023-05-20T03:01:12;12.13;;;7.15;;
50739;SDS011;36704;52.524;17.580;2023-05-20T03:03:57;18.67;;;8.05;;
50739;SDS011;36704;52.524;17.580;2023-05-20T03:06:44;15.20;;;8.55;;
50739;SDS011;36704;52.524;17.580;2023-05-20T03:09:32;13.57;;;8.13;;
50739;SDS011;36704;52.524;17.580;2023-05-20T03:12:18;16.35;;;8.60;;
50739;SDS011;36704;52.524;17.580;2023-05-20T03:15:03;13.55;;;7.50;;
50739;SDS011;36704;52.524;17.580;2023-05-20T03:17:53;12.95;;;7.90;;
50739;SDS011;36704;52.524;17.580;2023-05-20T03:20:38;14.48;;;7.72;;
50739;SDS011;36704;52.524;17.580;2023-05-20T03:23:26;13.75;;;8.98;;
50739;SDS011;36704;52.524;17.580;2023-05-20T03:26:12;14.48;;;8.85;;
50739;SDS011;36704;52.524;17.580;2023-05-20T03:28:57;14.88;;;9.18;;
50739;SDS011;36704;52.524;17.580;2023-05-20T03:31:44;13.00;;;8.07;;
50739;SDS011;36704;52.524;17.580;2023-05-20T03:34:30;17.15;;;9.30;;
50739;SDS011;36704;52.524;17.580;2023-05-20T03:37:17;16.95;;;9.32;;
50739;SDS011;36704;52.524;17.580;2023-05-20T03:40:03;14.43;;;8.88;;
50739;SDS011;36704;52.524;17.580;2023-05-20T03:42:51;21.08;;;10.30;;
50739;SDS011;36704;52.524;17.580;2023-05-20T03:45:38;18.77;;;9.75;;
50739;SDS011;36704;52.524;17.580;2023-05-20T03:48:25;13.77;;;8.55;;
50739;SDS011;36704;52.524;17.580;2023-05-20T03:51:11;15.05;;;9.32;;
50739;SDS011;36704;52.524;17.580;2023-05-20T03:53:58;13.10;;;7.45;;
50739;SDS011;36704;52.524;17.580;2023-05-20T03:56:44;14.02;;;8.10;;
50739;SDS011;36704;52.524;17.580;2023-05-20T03:59:31;16.60;;;8.82;;
50739;SDS011;36704;52.524;17.580;2023-05-20T04:02:17;24.10;;;10.50;;
50739;SDS011;36704;52.524;17.580;2023-05-20T04:05:03;20.15;;;9.30;;
50739;SDS011;36704;52.524;17.580;2023-05-20T04:07:50;18.23;;;9.43;;
50739;SDS011;36704;52.524;17.580;2023-05-20T04:10:39;16.23;;;8.63;;
50739;SDS011;36704;52.524;17.580;2023-05-20T04:13:26;24.75;;;11.32;;
50739;SDS011;36704;52.524;17.580;2023-05-20T04:16:12;14.60;;;8.10;;
50739;SDS011;36704;52.524;17.580;2023-05-20T04:18:58;16.40;;;8.38;;
50739;SDS011;36704;52.524;17.580;2023-05-20T04:21:45;13.38;;;8.20;;
50739;SDS011;36704;52.524;17.580;2023-05-20T04:24:32;13.55;;;7.88;;
50739;SDS011;36704;52.524;17.580;2023-05-20T04:27:18;15.15;;;8.48;;
50739;SDS011;36704;52.524;17.580;2023-05-20T04:30:05;13.18;;;7.50;;
50739;SDS011;36704;52.524;17.580;2023-05-20T04:32:55;12.40;;;7.75;;
50739;SDS011;36704;52.524;17.580;2023-05-20T04:35:42;12.20;;;7.57;;
50739;SDS011;36704;52.524;17.580;2023-05-20T04:38:28;15.30;;;8.55;;
50739;SDS011;36704;52.524;17.580;2023-05-20T04:41:15;15.48;;;8.05;;
50739;SDS011;36704;52.524;17.580;2023-05-20T04:44:02;11.30;;;8.18;;
50739;SDS011;36704;52.524;17.580;2023-05-20T04:46:40;14.05;;;8.40;;
50739;SDS011;36704;52.524;17.580;2023-05-20T04:49:26;11.82;;;7.55;;
50739;SDS011;36704;52.524;17.580;2023-05-20T04:52:14;9.60;;;7.07;;
50739;SDS011;36704;52.524;17.580;2023-05-20T04:55:00;17.80;;;8.98;;
50739;SDS011;36704;52.524;17.580;2023-05-20T05:01:02;12.50;;;8.23;;
50739;SDS011;36704;52.524;17.580;2023-05-20T05:03:49;12.43;;;8.05;;
50739;SDS011;36704;52.524;17.580;2023-05-20T05:06:35;14.75;;;7.45;;
50739;SDS011;36704;52.524;17.580;2023-05-20T05:09:21;11.18;;;6.82;;
50739;SDS011;36704;52.524;17.580;2023-05-20T05:12:07;14.52;;;7.90;;
50739;SDS011;36704;52.524;17.580;2023-05-20T05:14:53;12.23;;;7.35;;
50739;SDS011;36704;52.524;17.580;2023-05-20T05:17:38;15.18;;;7.57;;
50739;SDS011;36704;52.524;17.580;2023-05-20T05:20:25;14.60;;;8.20;;
50739;SDS011;36704;52.524;17.580;2023-05-20T05:23:11;13.57;;;8.07;;
50739;SDS011;36704;52.524;17.580;2023-05-20T05:25:57;11.07;;;7.43;;
50739;SDS011;36704;52.524;17.580;2023-05-20T05:28:43;13.80;;;7.93;;
50739;SDS011;36704;52.524;17.580;2023-05-20T05:31:29;13.70;;;8.00;;
50739;SDS011;36704;52.524;17.580;2023-05-20T05:34:15;11.00;;;7.32;;
50739;SDS011;36704;52.524;17.580;2023-05-20T05:37:01;12.23;;;8.20;;
50739;SDS011;36704;52.524;17.580;2023-05-20T05:39:48;15.30;;;10.00;;
50739;SDS011;36704;52.524;17.580;2023-05-20T05:42:34;23.70;;;11.90;;
50739;SDS011;36704;52.524;17.580;2023-05-20T05:45:20;15.98;;;9.18;;
50739;SDS011;36704;52.524;17.580;2023-05-20T05:48:06;21.35;;;10.50;;
50739;SDS011;36704;52.524;17.580;2023-05-20T05:50:52;17.00;;;10.20;;
50739;SDS011;36704;52.524;17.580;2023-05-20T05:53:39;13.88;;;9.38;;
50739;SDS011;36704;52.524;17.580;2023-05-20T05:56:25;17.48;;;10.02;;
50739;SDS011;36704;52.524;17.580;2023-05-20T05:59:11;22.20;;;11.30;;
50739;SDS011;36704;52.524;17.580;2023-05-20T06:01:58;15.35;;;10.05;;
50739;SDS011;36704;52.524;17.580;2023-05-20T06:04:44;14.00;;;10.20;;
50739;SDS011;36704;52.524;17.580;2023-05-20T06:07:29;18.52;;;11.13;;
50739;SDS011;36704;52.524;17.580;2023-05-20T06:10:15;15.63;;;10.07;;
50739;SDS011;36704;52.524;17.580;2023-05-20T06:13:02;16.70;;;10.13;;
50739;SDS011;36704;52.524;17.580;2023-05-20T06:15:49;14.02;;;9.75;;
50739;SDS011;36704;52.524;17.580;2023-05-20T06:18:35;13.20;;;10.85;;
50739;SDS011;36704;52.524;17.580;2023-05-20T06:21:23;13.20;;;8.98;;
50739;SDS011;36704;52.524;17.580;2023-05-20T06:24:09;12.90;;;8.82;;
50739;SDS011;36704;52.524;17.580;2023-05-20T06:26:56;14.77;;;8.45;;
50739;SDS011;36704;52.524;17.580;2023-05-20T06:29:42;19.05;;;10.18;;
50739;SDS011;36704;52.524;17.580;2023-05-20T06:32:29;15.10;;;8.38;;
50739;SDS011;36704;52.524;17.580;2023-05-20T06:35:15;17.50;;;9.95;;
50739;SDS011;36704;52.524;17.580;2023-05-20T06:38:01;14.13;;;10.80;;
50739;SDS011;36704;52.524;17.580;2023-05-20T06:40:48;17.27;;;10.73;;
50739;SDS011;36704;52.524;17.580;2023-05-20T06:43:34;12.82;;;9.43;;
50739;SDS011;36704;52.524;17.580;2023-05-20T06:46:39;19.67;;;11.80;;
50739;SDS011;36704;52.524;17.580;2023-05-20T06:49:30;11.48;;;9.15;;
50739;SDS011;36704;52.524;17.580;2023-05-20T06:52:15;16.40;;;10.10;;
50739;SDS011;36704;52.524;17.580;2023-05-20T06:55:03;15.63;;;9.65;;
50739;SDS011;36704;52.524;17.580;2023-05-20T06:57:51;17.30;;;9.88;;
50739;SDS011;36704;52.524;17.580;2023-05-20T07:00:37;13.48;;;9.35;;
50739;SDS011;36704;52.524;17.580;2023-05-20T07:03:23;15.68;;;10.50;;
50739;SDS011;36704;52.524;17.580;2023-05-20T07:06:10;13.15;;;9.82;;
50739;SDS011;36704;52.524;17.580;2023-05-20T07:08:56;16.33;;;11.38;;
50739;SDS011;36704;52.524;17.580;2023-05-20T07:11:43;13.25;;;10.13;;
50739;SDS011;36704;52.524;17.580;2023-05-20T07:14:29;16.65;;;9.63;;
50739;SDS011;36704;52.524;17.580;2023-05-20T07:17:15;12.30;;;9.38;;
50739;SDS011;36704;52.524;17.580;2023-05-20T07:20:03;11.07;;;9.15;;
50739;SDS011;36704;52.524;17.580;2023-05-20T07:22:49;12.60;;;9.40;;
50739;SDS011;36704;52.524;17.580;2023-05-20T07:25:49;13.43;;;10.52;;
50739;SDS011;36704;52.524;17.580;2023-05-20T07:28:35;15.35;;;10.18;;
50739;SDS011;36704;52.524;17.580;2023-05-20T07:31:21;13.05;;;10.23;;
50739;SDS011;36704;52.524;17.580;2023-05-20T07:34:09;18.55;;;10.00;;
50739;SDS011;36704;52.524;17.580;2023-05-20T07:36:54;13.13;;;7.97;;
50739;SDS011;36704;52.524;17.580;2023-05-20T07:39:42;13.98;;;7.78;;
50739;SDS011;36704;52.524;17.580;2023-05-20T07:42:27;15.63;;;8.38;;
50739;SDS011;36704;52.524;17.580;2023-05-20T07:45:17;13.30;;;8.25;;
50739;SDS011;36704;52.524;17.580;2023-05-20T07:48:03;10.77;;;7.03;;
50739;SDS011;36704;52.524;17.580;2023-05-20T07:50:50;13.55;;;7.32;;
50739;SDS011;36704;52.524;17.580;2023-05-20T07:53:36;11.40;;;7.43;;
50739;SDS011;36704;52.524;17.580;2023-05-20T07:56:23;15.35;;;7.32;;
50739;SDS011;36704;52.524;17.580;2023-05-20T07:59:09;17.58;;;8.07;;
50739;SDS011;36704;52.524;17.580;2023-05-20T08:02:00;13.20;;;7.32;;
50739;SDS011;36704;52.524;17.580;2023-05-20T08:04:46;12.77;;;7.05;;
50739;SDS011;36704;52.524;17.580;2023-05-20T08:07:32;10.40;;;7.15;;
50739;SDS011;36704;52.524;17.580;2023-05-20T08:10:18;11.75;;;7.18;;
50739;SDS011;36704;52.524;17.580;2023-05-20T08:13:05;11.55;;;7.03;;
50739;SDS011;36704;52.524;17.580;2023-05-20T08:15:52;14.30;;;7.57;;
50739;SDS011;36704;52.524;17.580;2023-05-20T08:18:39;12.40;;;6.72;;
50739;SDS011;36704;52.524;17.580;2023-05-20T08:21:24;14.50;;;6.50;;
50739;SDS011;36704;52.524;17.580;2023-05-20T08:24:11;15.73;;;7.18;;
50739;SDS011;36704;52.524;17.580;2023-05-20T08:26:57;15.07;;;7.97;;
50739;SDS011;36704;52.524;17.580;2023-05-20T08:29:44;11.20;;;6.75;;
50739;SDS011;36704;52.524;17.580;2023-05-20T08:32:31;15.30;;;7.18;;
50739;SDS011;36704;52.524;17.580;2023-05-20T08:35:17;12.75;;;7.05;;
50739;SDS011;36704;52.524;17.580;2023-05-20T08:38:02;13.55;;;8.05;;
50739;SDS011;36704;52.524;17.580;2023-05-20T08:40:55;15.90;;;7.80;;
50739;SDS011;36704;52.524;17.580;2023-05-20T08:43:42;12.50;;;7.30;;
50739;SDS011;36704;52.524;17.580;2023-05-20T08:46:28;15.18;;;7.65;;
50739;SDS011;36704;52.524;17.580;2023-05-20T08:49:16;12.57;;;7.40;;
50739;SDS011;36704;52.524;17.580;2023-05-20T08:52:03;15.77;;;8.20;;
50739;SDS011;36704;52.524;17.580;2023-05-20T08:54:50;11.98;;;7.32;;
50739;SDS011;36704;52.524;17.580;2023-05-20T08:57:36;10.90;;;8.30;;
50739;SDS011;36704;52.524;17.580;2023-05-20T09:00:22;13.80;;;8.70;;
50739;SDS011;36704;52.524;17.580;2023-05-20T09:03:11;17.50;;;9.80;;
50739;SDS011;36704;52.524;17.580;2023-05-20T09:06:04;18.90;;;9.93;;
50739;SDS011;36704;52.524;17.580;2023-05-20T09:08:51;16.70;;;10.00;;
50739;SDS011;36704;52.524;17.580;2023-05-20T09:11:37;17.05;;;10.38;;
50739;SDS011;36704;52.524;17.580;2023-05-20T09:14:24;16.13;;;10.77;;
50739;SDS011;36704;52.524;17.580;2023-05-20T09:17:12;17.83;;;10.48;;
50739;SDS011;36704;52.524;17.580;2023-05-20T09:19:58;14.27;;;10.88;;
50739;SDS011;36704;52.524;17.580;2023-05-20T09:22:44;18.88;;;11.05;;
50739;SDS011;36704;52.524;17.580;2023-05-20T09:25:31;14.40;;;10.82;;
50739;SDS011;36704;52.524;17.580;2023-05-20T09:28:21;16.17;;;10.77;;
50739;SDS011;36704;52.524;17.580;2023-05-20T09:31:12;18.08;;;11.75;;
50739;SDS011;36704;52.524;17.580;2023-05-20T09:33:59;15.35;;;10.35;;
50739;SDS011;36704;52.524;17.580;2023-05-20T09:36:47;10.95;;;8.77;;
50739;SDS011;36704;52.524;17.580;2023-05-20T09:39:54;15.40;;;8.35;;
50739;SDS011;36704;52.524;17.580;2023-05-20T09:45:41;14.15;;;9.23;;
50739;SDS011;36704;52.524;17.580;2023-05-20T09:48:27;18.67;;;10.30;;
50739;SDS011;36704;52.524;17.580;2023-05-20T09:51:19;12.18;;;9.23;;
50739;SDS011;36704;52.524;17.580;2023-05-20T09:54:07;18.08;;;9.82;;
50739;SDS011;36704;52.524;17.580;2023-05-20T09:56:53;16.27;;;9.75;;
50739;SDS011;36704;52.524;17.580;2023-05-20T09:59:41;16.05;;;9.75;;
50739;SDS011;36704;52.524;17.580;2023-05-20T10:02:28;11.63;;;8.55;;
50739;SDS011;36704;52.524;17.580;2023-05-20T10:05:16;17.20;;;9.95;;
50739;SDS011;36704;52.524;17.580;2023-05-20T10:08:10;13.32;;;9.77;;
50739;SDS011;36704;52.524;17.580;2023-05-20T10:13:59;14.05;;;8.80;;
50739;SDS011;36704;52.524;17.580;2023-05-20T10:20:22;14.57;;;10.20;;
50739;SDS011;36704;52.524;17.580;2023-05-20T10:23:08;22.38;;;11.13;;
50739;SDS011;36704;52.524;17.580;2023-05-20T10:25:54;16.30;;;11.45;;
50739;SDS011;36704;52.524;17.580;2023-05-20T10:28:41;18.33;;;13.48;;
50739;SDS011;36704;52.524;17.580;2023-05-20T10:31:27;16.63;;;11.27;;
50739;SDS011;36704;52.524;17.580;2023-05-20T10:34:14;12.93;;;9.13;;
50739;SDS011;36704;52.524;17.580;2023-05-20T10:37:03;12.18;;;9.18;;
50739;SDS011;36704;52.524;17.580;2023-05-20T10:39:49;13.05;;;9.95;;
50739;SDS011;36704;52.524;17.580;2023-05-20T10:42:35;12.45;;;9.07;;
50739;SDS011;36704;52.524;17.580;2023-05-20T10:45:24;18.13;;;9.95;;
50739;SDS011;36704;52.524;17.580;2023-05-20T10:48:18;16.92;;;10.07;;
50739;SDS011;36704;52.524;17.580;2023-05-20T10:51:11;14.95;;;10.23;;
50739;SDS011;36704;52.524;17.580;2023-05-20T10:53:58;12.45;;;10.10;;
50739;SDS011;36704;52.524;17.580;2023-05-20T10:56:51;15.40;;;10.00;;
50739;SDS011;36704;52.524;17.580;2023-05-20T10:59:38;16.00;;;10.20;;
50739;SDS011;36704;52.524;17.580;2023-05-20T11:02:24;14.70;;;9.70;;
50739;SDS011;36704;52.524;17.580;2023-05-20T11:05:13;15.35;;;10.10;;
50739;SDS011;36704;52.524;17.580;2023-05-20T11:08:05;16.35;;;10.75;;
50739;SDS011;36704;52.524;17.580;2023-05-20T11:11:12;14.80;;;10.63;;
50739;SDS011;36704;52.524;17.580;2023-05-20T11:13:59;16.02;;;10.05;;
50739;SDS011;36704;52.524;17.580;2023-05-20T11:16:50;13.05;;;9.48;;
50739;SDS011;36704;52.524;17.580;2023-05-20T11:19:36;15.73;;;9.55;;
50739;SDS011;36704;52.524;17.580;2023-05-20T11:22:22;15.02;;;8.90;;
50739;SDS011;36704;52.524;17.580;2023-05-20T11:25:08;16.75;;;9.32;;
50739;SDS011;36704;52.524;17.580;2023-05-20T11:27:54;14.38;;;10.15;;
50739;SDS011;36704;52.524;17.580;2023-05-20T11:30:41;14.32;;;10.10;;
50739;SDS011;36704;52.524;17.580;2023-05-20T11:33:28;15.20;;;10.30;;
50739;SDS011;36704;52.524;17.580;2023-05-20T11:36:14;19.83;;;10.45;;
50739;SDS011;36704;52.524;17.580;2023-05-20T11:39:12;14.75;;;10.70;;
50739;SDS011;36704;52.524;17.580;2023-05-20T11:41:59;19.52;;;9.88;;
50739;SDS011;36704;52.524;17.580;2023-05-20T11:44:45;16.33;;;10.93;;
50739;SDS011;36704;52.524;17.580;2023-05-20T11:47:33;15.18;;;10.25;;
50739;SDS011;36704;52.524;17.580;2023-05-20T11:50:19;19.80;;;10.65;;
50739;SDS011;36704;52.524;17.580;2023-05-20T11:53:06;16.58;;;9.88;;
50739;SDS011;36704;52.524;17.580;2023-05-20T11:55:56;17.08;;;10.80;;
50739;SDS011;36704;52.524;17.580;2023-05-20T11:58:43;15.98;;;11.05;;
50739;SDS011;36704;52.524;17.580;2023-05-20T12:01:31;15.52;;;10.82;;
50739;SDS011;36704;52.524;17.580;2023-05-20T12:04:25;16.40;;;11.40;;
50739;SDS011;36704;52.524;17.580;2023-05-20T12:07:11;20.00;;;11.55;;
50739;SDS011;36704;52.524;17.580;2023-05-20T12:10:00;15.93;;;11.15;;
50739;SDS011;36704;52.524;17.580;2023-05-20T12:12:46;17.58;;;11.52;;
50739;SDS011;36704;52.524;17.580;2023-05-20T12:15:32;19.92;;;12.20;;
50739;SDS011;36704;52.524;17.580;2023-05-20T12:18:17;18.67;;;11.40;;
50739;SDS011;36704;52.524;17.580;2023-05-20T12:21:04;24.50;;;14.32;;
50739;SDS011;36704;52.524;17.580;2023-05-20T12:23:49;32.28;;;20.13;;
50739;SDS011;36704;52.524;17.580;2023-05-20T12:26:42;17.73;;;11.45;;
50739;SDS011;36704;52.524;17.580;2023-05-20T12:29:27;19.77;;;11.82;;
50739;SDS011;36704;52.524;17.580;2023-05-20T12:32:13;18.23;;;12.00;;
50739;SDS011;36704;52.524;17.580;2023-05-20T12:34:59;19.50;;;11.38;;
50739;SDS011;36704;52.524;17.580;2023-05-20T12:37:46;17.23;;;11.38;;
50739;SDS011;36704;52.524;17.580;2023-05-20T12:40:31;18.33;;;11.40;;
50739;SDS011;36704;52.524;17.580;2023-05-20T12:43:18;18.88;;;11.48;;
50739;SDS011;36704;52.524;17.580;2023-05-20T12:46:03;15.27;;;11.30;;
50739;SDS011;36704;52.524;17.580;2023-05-20T12:48:49;18.02;;;10.90;;
50739;SDS011;36704;52.524;17.580;2023-05-20T12:51:35;14.85;;;10.38;;
50739;SDS011;36704;52.524;17.580;2023-05-20T12:54:21;15.23;;;11.32;;
50739;SDS011;36704;52.524;17.580;2023-05-20T12:57:07;15.13;;;10.75;;
50739;SDS011;36704;52.524;17.580;2023-05-20T12:59:53;15.25;;;10.95;;
50739;SDS011;36704;52.524;17.580;2023-05-20T13:02:39;14.68;;;10.02;;
50739;SDS011;36704;52.524;17.580;2023-05-20T13:05:27;16.15;;;10.35;;
50739;SDS011;36704;52.524;17.580;2023-05-20T13:08:13;15.10;;;10.60;;
50739;SDS011;36704;52.524;17.580;2023-05-20T13:10:59;14.65;;;10.45;;
50739;SDS011;36704;52.524;17.580;2023-05-20T13:13:46;14.75;;;10.90;;
50739;SDS011;36704;52.524;17.580;2023-05-20T13:16:32;16.65;;;10.77;;
50739;SDS011;36704;52.524;17.580;2023-05-20T13:19:18;15.32;;;10.50;;
50739;SDS011;36704;52.524;17.580;2023-05-20T13:22:05;23.52;;;11.73;;
50739;SDS011;36704;52.524;17.580;2023-05-20T13:24:51;16.27;;;10.88;;
50739;SDS011;36704;52.524;17.580;2023-05-20T13:27:37;15.88;;;11.35;;
50739;SDS011;36704;52.524;17.580;2023-05-20T13:30:22;16.70;;;11.25;;
50739;SDS011;36704;52.524;17.580;2023-05-20T13:33:09;16.40;;;11.48;;
50739;SDS011;36704;52.524;17.580;2023-05-20T13:35:55;17.40;;;11.18;;
50739;SDS011;36704;52.524;17.580;2023-05-20T13:38:41;15.68;;;10.32;;
50739;SDS011;36704;52.524;17.580;2023-05-20T13:41:27;16.83;;;11.95;;
50739;SDS011;36704;52.524;17.580;2023-05-20T13:44:13;17.75;;;11.75;;
50739;SDS011;36704;52.524;17.580;2023-05-20T13:46:58;16.25;;;11.23;;
50739;SDS011;36704;52.524;17.580;2023-05-20T13:49:44;16.45;;;11.10;;
50739;SDS011;36704;52.524;17.580;2023-05-20T13:52:30;17.65;;;11.65;;
50739;SDS011;36704;52.524;17.580;2023-05-20T13:55:15;15.48;;;11.30;;
50739;SDS011;36704;52.524;17.580;2023-05-20T13:58:02;16.02;;;11.18;;
50739;SDS011;36704;52.524;17.580;2023-05-20T14:00:50;17.13;;;11.30;;
50739;SDS011;36704;52.524;17.580;2023-05-20T14:03:36;17.05;;;10.95;;
50739;SDS011;36704;52.524;17.580;2023-05-20T14:06:25;17.02;;;11.95;;
50739;SDS011;36704;52.524;17.580;2023-05-20T14:09:11;20.73;;;10.77;;
50739;SDS011;36704;52.524;17.580;2023-05-20T14:11:56;16.05;;;11.60;;
50739;SDS011;36704;52.524;17.580;2023-05-20T14:14:42;14.45;;;11.40;;
50739;SDS011;36704;52.524;17.580;2023-05-20T14:17:28;16.65;;;11.57;;
50739;SDS011;36704;52.524;17.580;2023-05-20T14:20:14;18.80;;;11.57;;
50739;SDS011;36704;52.524;17.580;2023-05-20T14:23:01;16.83;;;11.80;;
50739;SDS011;36704;52.524;17.580;2023-05-20T14:25:46;14.93;;;11.65;;
50739;SDS011;36704;52.524;17.580;2023-05-20T14:28:33;14.70;;;11.40;;
50739;SDS011;36704;52.524;17.580;2023-05-20T14:31:18;16.73;;;12.38;;
50739;SDS011;36704;52.524;17.580;2023-05-20T14:34:05;18.25;;;12.48;;
50739;SDS011;36704;52.524;17.580;2023-05-20T14:36:50;18.35;;;12.20;;
50739;SDS011;36704;52.524;17.580;2023-05-20T14:39:37;20.02;;;13.95;;
50739;SDS011;36704;52.524;17.580;2023-05-20T14:42:23;24.65;;;16.10;;
50739;SDS011;36704;52.524;17.580;2023-05-20T14:45:09;20.58;;;13.85;;
50739;SDS011;36704;52.524;17.580;2023-05-20T14:47:55;20.23;;;12.32;;
50739;SDS011;36704;52.524;17.580;2023-05-20T14:50:41;21.17;;;12.13;;
50739;SDS011;36704;52.524;17.580;2023-05-20T14:53:26;18.60;;;11.80;;
50739;SDS011;36704;52.524;17.580;2023-05-20T14:56:12;21.80;;;12.93;;
50739;SDS011;36704;52.524;17.580;2023-05-20T14:58:58;15.77;;;11.75;;
50739;SDS011;36704;52.524;17.580;2023-05-20T15:01:44;21.23;;;11.95;;
50739;SDS011;36704;52.524;17.580;2023-05-20T15:04:30;16.40;;;11.52;;
50739;SDS011;36704;52.524;17.580;2023-05-20T15:07:17;20.58;;;12.70;;
50739;SDS011;36704;52.524;17.580;2023-05-20T15:10:03;25.33;;;12.20;;
50739;SDS011;36704;52.524;17.580;2023-05-20T15:12:49;17.40;;;11.48;;
50739;SDS011;36704;52.524;17.580;2023-05-20T15:15:35;16.80;;;12.07;;
50739;SDS011;36704;52.524;17.580;2023-05-20T15:18:21;19.80;;;11.82;;
50739;SDS011;36704;52.524;17.580;2023-05-20T15:21:07;22.60;;;12.38;;
50739;SDS011;36704;52.524;17.580;2023-05-20T15:23:53;23.02;;;12.65;;
50739;SDS011;36704;52.524;17.580;2023-05-20T15:26:39;21.35;;;13.20;;
50739;SDS011;36704;52.524;17.580;2023-05-20T15:29:25;20.48;;;11.38;;
50739;SDS011;36704;52.524;17.580;2023-05-20T15:32:11;18.25;;;12.10;;
50739;SDS011;36704;52.524;17.580;2023-05-20T15:34:57;22.27;;;12.18;;
50739;SDS011;36704;52.524;17.580;2023-05-20T15:37:44;20.85;;;12.32;;
50739;SDS011;36704;52.524;17.580;2023-05-20T15:40:29;17.08;;;11.63;;
50739;SDS011;36704;52.524;17.580;2023-05-20T15:43:16;17.75;;;12.07;;
50739;SDS011;36704;52.524;17.580;2023-05-20T15:46:03;15.70;;;12.10;;
50739;SDS011;36704;52.524;17.580;2023-05-20T15:48:49;21.85;;;13.52;;
50739;SDS011;36704;52.524;17.580;2023-05-20T15:51:36;24.60;;;11.75;;
50739;SDS011;36704;52.524;17.580;2023-05-20T15:54:21;18.77;;;12.05;;
50739;SDS011;36704;52.524;17.580;2023-05-20T16:00:58;14.52;;;12.07;;
50739;SDS011;36704;52.524;17.580;2023-05-20T16:03:44;15.95;;;12.07;;
50739;SDS011;36704;52.524;17.580;2023-05-20T16:06:30;18.17;;;12.27;;
50739;SDS011;36704;52.524;17.580;2023-05-20T16:09:17;18.02;;;12.90;;
50739;SDS011;36704;52.524;17.580;2023-05-20T16:12:03;21.38;;;13.55;;
50739;SDS011;36704;52.524;17.580;2023-05-20T16:14:49;30.52;;;19.98;;
50739;SDS011;36704;52.524;17.580;2023-05-20T16:17:35;30.83;;;20.70;;
50739;SDS011;36704;52.524;17.580;2023-05-20T16:20:21;17.92;;;13.27;;
50739;SDS011;36704;52.524;17.580;2023-05-20T16:23:07;15.90;;;12.20;;
50739;SDS011;36704;52.524;17.580;2023-05-20T16:25:53;20.65;;;11.18;;